Time;durP1;ratioP1;P1;durP2;ratioP2;P2;SDS_P1;SDS_P2;PMS_P1;PMS_P2;Temp;Humidity;BMP_temperature;BMP_pressure;BME280_temperature;BME280_humidity;BME280_pressure;Samples;Min_cycle;Max_cycle;Signal;HPM_P1;HPM_P2
2020/12/02 00:00:41;;;;;;;9.97;8.47;;;;;;;6.03;83.97;96347.13;5073125;28;20189;-62
2020/12/02 00:03:13;;;;;;;10.50;8.40;;;;;;;6.03;84.01;96342.69;5074841;28;20174;-61
2020/12/02 00:05:44;;;;;;;11.60;8.20;;;;;;;6.07;84.12;96338.69;5089710;28;20928;-61
2020/12/02 00:08:33;;;;;;;12.50;9.33;;;;;;;6.02;84.39;96341.09;5074293;28;20458;-62
2020/12/02 00:11:05;;;;;;;11.60;8.43;;;;;;;6.06;84.01;96347.53;5084250;28;20551;-61
2020/12/02 00:13:34;;;;;;;10.70;7.80;;;;;;;6.08;82.95;96347.31;5090507;28;20435;-61
2020/12/02 00:16:02;;;;;;;9.40;8.20;;;;;;;6.02;83.61;96346.31;5074611;28;20898;-62
2020/12/02 00:18:29;;;;;;;8.10;7.30;;;;;;;6.08;83.25;96347.31;5074242;28;20398;-62
2020/12/02 00:20:54;;;;;;;8.70;7.77;;;;;;;6.15;83.24;96346.34;5074604;28;20405;-62
2020/12/02 00:23:20;;;;;;;9.20;7.40;;;;;;;6.06;82.96;96346.72;5085503;28;20422;-64
2020/12/02 00:25:45;;;;;;;10.43;9.20;;;;;;;6.05;83.61;96340.69;5094573;28;20174;-63
2020/12/02 00:28:12;;;;;;;10.47;9.37;;;;;;;6.03;82.60;96354.94;5083972;28;20198;-64
2020/12/02 00:30:39;;;;;;;11.47;9.57;;;;;;;5.98;83.84;96336.47;5077853;28;20706;-64
2020/12/02 00:33:08;;;;;;;11.33;9.40;;;;;;;5.92;83.70;96348.50;5074038;28;20430;-65
2020/12/02 00:35:34;;;;;;;12.30;9.27;;;;;;;5.89;83.68;96341.06;5084757;28;20826;-64
2020/12/02 00:38:00;;;;;;;13.27;9.97;;;;;;;5.88;83.97;96341.25;5094047;28;20460;-64
2020/12/02 00:40:25;;;;;;;15.60;10.00;;;;;;;5.97;83.86;96342.69;5090218;28;20202;-65
2020/12/02 00:42:51;;;;;;;14.30;9.60;;;;;;;5.96;83.34;96336.66;5074746;28;20212;-65
2020/12/02 00:45:16;;;;;;;17.20;10.13;;;;;;;5.97;84.06;96334.88;5090618;28;20303;-64
2020/12/02 00:47:41;;;;;;;16.87;10.03;;;;;;;5.94;84.14;96333.44;5093860;28;20531;-63
2020/12/02 00:50:09;;;;;;;27.60;12.50;;;;;;;5.97;84.52;96335.69;5092891;28;20198;-65
2020/12/02 00:52:35;;;;;;;19.70;12.17;;;;;;;5.95;85.03;96334.25;5081450;28;20174;-64
2020/12/02 00:55:00;;;;;;;17.80;10.47;;;;;;;5.98;84.59;96334.66;5073756;28;20771;-64
2020/12/02 00:57:33;;;;;;;20.93;10.40;;;;;;;6.02;84.44;96335.06;5073098;28;20186;-64
2020/12/02 01:00:00;;;;;;;11.77;8.90;;;;;;;6.00;84.54;96337.88;5065327;28;20566;-64
2020/12/02 01:02:45;;;;;;;22.23;10.40;;;;;;;6.01;84.26;96336.09;5073684;28;20431;-65
2020/12/02 01:05:14;;;;;;;13.97;10.63;;;;;;;6.05;83.59;96330.25;5073920;28;20906;-65
2020/12/02 01:07:41;;;;;;;27.73;11.20;;;;;;;6.02;83.90;96335.06;5073305;28;20415;-63
2020/12/02 01:10:09;;;;;;;25.40;11.40;;;;;;;6.04;84.79;96336.50;5073598;28;20443;-65
2020/12/02 01:12:37;;;;;;;14.70;10.30;;;;;;;6.09;84.22;96330.66;5077109;28;20899;-64
2020/12/02 01:15:06;;;;;;;21.30;11.23;;;;;;;6.08;84.29;96337.72;5085381;28;20438;-64
2020/12/02 01:17:31;;;;;;;18.03;10.47;;;;;;;6.09;84.15;96331.47;5093372;28;20419;-63
2020/12/02 01:19:56;;;;;;;17.60;10.57;;;;;;;6.12;83.70;96338.13;5085758;28;20436;-64
2020/12/02 01:22:30;;;;;;;13.57;10.30;;;;;;;6.08;83.58;96336.91;5085852;28;20637;-64
2020/12/02 01:25:07;;;;;;;14.33;8.80;;;;;;;5.86;83.47;96335.44;5073382;28;20175;-63
2020/12/02 01:27:41;;;;;;;24.10;10.10;;;;;;;5.91;83.71;96336.44;5073689;28;20488;-64
2020/12/02 01:30:10;;;;;;;16.60;10.47;;;;;;;5.96;84.43;96325.44;5073263;28;20448;-64
2020/12/02 01:32:35;;;;;;;128.67;16.03;;;;;;;5.99;83.86;96328.47;5073329;28;20898;-65
2020/12/02 01:35:01;;;;;;;65.00;12.70;;;;;;;5.92;83.57;96334.66;5073327;28;20431;-64
2020/12/02 01:37:36;;;;;;;32.07;10.73;;;;;;;5.87;84.14;96319.59;5072919;28;20181;-65
2020/12/02 01:40:15;;;;;;;43.70;12.17;;;;;;;5.87;83.59;96330.03;5079995;28;20445;-64
2020/12/02 01:42:45;;;;;;;31.10;12.00;;;;;;;5.91;83.82;96331.25;5075821;28;20424;-63
2020/12/02 01:45:34;;;;;;;86.00;13.47;;;;;;;5.82;84.56;96323.75;5085836;28;20453;-64
2020/12/02 01:48:12;;;;;;;35.40;10.70;;;;;;;5.86;83.84;96325.00;5093051;28;20992;-64
2020/12/02 01:50:45;;;;;;;19.70;10.17;;;;;;;5.86;84.33;96333.63;5090740;28;20441;-64
2020/12/02 01:53:24;;;;;;;98.17;13.67;;;;;;;5.78;84.92;96323.34;5093392;28;20412;-64
2020/12/02 01:56:01;;;;;;;22.30;10.40;;;;;;;5.77;84.04;96326.97;5075221;28;20443;-64
2020/12/02 01:58:58;;;;;;;60.30;14.30;;;;;;;5.81;84.75;96328.19;5072457;28;20420;-64
2020/12/02 02:01:29;;;;;;;13.53;10.80;;;;;;;5.76;84.38;96325.34;5082804;28;20423;-63
2020/12/02 02:03:57;;;;;;;111.73;16.00;;;;;;;5.54;85.80;96329.09;5091374;28;20901;-64
2020/12/02 02:06:50;;;;;;;194.37;18.70;;;;;;;5.56;85.97;96323.69;5081591;28;20419;-65
2020/12/02 02:09:16;;;;;;;32.63;11.10;;;;;;;5.50;84.92;96320.06;5071852;28;20462;-64
2020/12/02 02:11:49;;;;;;;73.50;14.27;;;;;;;5.51;86.09;96321.66;5072646;28;20502;-64
2020/12/02 02:14:50;;;;;;;12.07;9.23;;;;;;;5.49;85.97;96328.88;5073808;28;20252;-64
2020/12/02 02:17:16;;;;;;;37.27;10.97;;;;;;;5.51;85.59;96321.66;5060300;28;20431;-64
2020/12/02 02:19:42;;;;;;;38.90;10.70;;;;;;;5.40;85.85;96327.41;5087445;28;20440;-64
2020/12/02 02:22:07;;;;;;;20.07;10.40;;;;;;;5.35;86.22;96319.41;5072876;28;20170;-64
2020/12/02 02:24:32;;;;;;;14.30;11.40;;;;;;;5.39;86.61;96314.59;5081581;28;20435;-64
2020/12/02 02:26:58;;;;;;;36.27;12.03;;;;;;;5.47;86.37;96319.66;5085067;28;20194;-64
2020/12/02 02:29:28;;;;;;;42.60;12.67;;;;;;;5.52;85.41;96318.06;5078522;28;20682;-63
2020/12/02 02:32:09;;;;;;;64.80;15.70;;;;;;;5.49;86.40;96320.25;5092412;28;20795;-63
2020/12/02 02:34:38;;;;;;;93.63;17.03;;;;;;;5.50;86.51;96314.84;5086073;28;20481;-64
2020/12/02 02:37:06;;;;;;;20.33;11.57;;;;;;;5.43;86.14;96302.78;5072334;28;20504;-64
2020/12/02 02:39:32;;;;;;;19.80;11.30;;;;;;;5.39;86.63;96307.59;5077665;28;20539;-63
2020/12/02 02:42:00;;;;;;;36.70;14.20;;;;;;;5.44;87.29;96309.59;5074100;28;20451;-63
2020/12/02 02:44:25;;;;;;;60.30;14.03;;;;;;;5.59;85.92;96298.03;5072836;28;20412;-63
2020/12/02 02:46:52;;;;;;;19.43;11.03;;;;;;;5.55;85.44;96302.03;5072448;28;20975;-64
2020/12/02 02:49:17;;;;;;;32.77;12.97;;;;;;;5.54;85.85;96303.06;5073430;28;20267;-63
2020/12/02 02:51:43;;;;;;;93.80;16.43;;;;;;;5.66;85.38;96296.25;5073240;28;20404;-64
2020/12/02 02:54:08;;;;;;;15.90;10.83;;;;;;;5.69;84.85;96295.84;5076459;28;20582;-65
2020/12/02 02:56:34;;;;;;;13.53;10.70;;;;;;;5.63;85.56;96294.06;5089538;28;20174;-64
2020/12/02 02:58:59;;;;;;;20.77;12.03;;;;;;;5.69;85.87;96295.06;5087111;28;20683;-64
2020/12/02 03:01:24;;;;;;;14.40;11.50;;;;;;;5.70;85.07;96289.66;5077502;28;20268;-64
2020/12/02 03:03:50;;;;;;;18.13;11.70;;;;;;;5.66;85.65;96293.66;5076817;28;20181;-64
2020/12/02 03:06:15;;;;;;;15.67;10.90;;;;;;;5.65;85.60;96291.25;5083660;28;20178;-63
2020/12/02 03:08:41;;;;;;;40.27;12.70;;;;;;;5.64;85.49;96295.66;5095734;28;20236;-64
2020/12/02 03:11:12;;;;;;;24.73;11.87;;;;;;;5.70;85.04;96281.84;5096306;28;20173;-64
2020/12/02 03:13:43;;;;;;;12.37;10.20;;;;;;;5.67;84.63;96292.63;5096228;28;20181;-64
2020/12/02 03:16:26;;;;;;;16.80;12.13;;;;;;;5.68;84.94;96294.25;5094749;28;20447;-64
2020/12/02 03:18:56;;;;;;;15.37;11.80;;;;;;;5.75;84.63;96287.25;5078461;28;20444;-64
2020/12/02 03:21:22;;;;;;;22.37;12.73;;;;;;;5.75;85.21;96287.25;5076801;28;20431;-64
2020/12/02 03:23:50;;;;;;;14.60;11.30;;;;;;;5.73;84.29;96291.06;5075765;28;20411;-64
2020/12/02 03:26:17;;;;;;;17.47;12.07;;;;;;;5.77;85.19;96290.47;5075150;28;20906;-66
2020/12/02 03:28:43;;;;;;;17.70;12.23;;;;;;;5.79;84.67;96295.50;5075119;28;20553;-64
2020/12/02 03:31:12;;;;;;;16.17;12.00;;;;;;;5.76;84.48;96291.47;5075428;28;20511;-64
2020/12/02 03:33:38;;;;;;;15.40;11.57;;;;;;;5.60;84.49;96284.00;5075635;28;20177;-63
2020/12/02 03:36:04;;;;;;;18.93;12.40;;;;;;;5.55;85.74;96291.63;5092529;28;20490;-64
2020/12/02 03:38:29;;;;;;;19.57;12.60;;;;;;;5.68;85.36;96298.66;5095314;28;20880;-64
2020/12/02 03:40:55;;;;;;;29.80;12.47;;;;;;;5.77;85.16;96298.28;5085199;28;20178;-64
2020/12/02 03:43:20;;;;;;;44.17;13.23;;;;;;;5.77;84.50;96293.09;5074902;28;20184;-64
2020/12/02 03:45:46;;;;;;;84.77;15.27;;;;;;;5.65;85.06;96291.25;5074803;28;20540;-64
2020/12/02 03:48:13;;;;;;;11.80;10.17;;;;;;;5.70;84.11;96294.88;5074835;28;20275;-64
2020/12/02 03:50:40;;;;;;;19.17;12.63;;;;;;;5.68;85.29;96289.06;5075080;28;20187;-64
2020/12/02 03:53:07;;;;;;;14.60;11.53;;;;;;;5.74;85.35;96295.28;5075263;28;20462;-64
2020/12/02 03:55:32;;;;;;;57.30;14.33;;;;;;;5.75;84.81;96297.69;5075153;28;20506;-64
2020/12/02 03:57:58;;;;;;;18.93;11.67;;;;;;;5.72;84.97;96295.50;5074558;28;20948;-64
2020/12/02 04:00:23;;;;;;;16.20;12.40;;;;;;;5.71;85.05;96293.88;5074577;28;20217;-63
2020/12/02 04:02:49;;;;;;;20.93;12.23;;;;;;;5.75;84.69;96300.28;5091959;28;20181;-63
2020/12/02 04:05:14;;;;;;;20.20;11.40;;;;;;;5.73;84.62;96294.47;5095090;28;20680;-64
2020/12/02 04:07:40;;;;;;;18.20;10.80;;;;;;;5.78;84.23;96293.91;5092887;28;20183;-64
2020/12/02 04:10:06;;;;;;;28.27;11.53;;;;;;;5.66;85.08;96291.06;5094682;28;20212;-64
2020/12/02 04:12:31;;;;;;;25.33;12.23;;;;;;;5.73;84.72;96288.44;5094958;28;20638;-64
2020/12/02 04:14:57;;;;;;;16.57;10.50;;;;;;;5.72;84.58;96289.47;5086552;28;20193;-64
2020/12/02 04:17:22;;;;;;;17.17;12.27;;;;;;;5.68;84.42;96288.25;5073436;28;20217;-64
2020/12/02 04:19:47;;;;;;;15.87;11.50;;;;;;;5.66;84.18;96285.84;5074420;28;20189;-64
2020/12/02 04:22:13;;;;;;;15.00;11.33;;;;;;;5.61;85.11;96285.63;5074628;28;20205;-63
2020/12/02 04:24:38;;;;;;;16.47;12.03;;;;;;;5.54;84.84;96284.00;5074596;28;20571;-64
2020/12/02 04:27:05;;;;;;;17.30;13.30;;;;;;;5.60;84.79;96284.00;5074911;28;20193;-63
2020/12/02 04:29:30;;;;;;;19.27;13.17;;;;;;;5.63;84.45;96283.63;5075258;28;20292;-64
2020/12/02 04:31:56;;;;;;;18.00;12.90;;;;;;;5.64;84.38;96281.81;5074061;28;20436;-64
2020/12/02 04:34:21;;;;;;;17.70;11.70;;;;;;;5.58;85.05;96282.63;5074079;28;20188;-64
2020/12/02 04:36:50;;;;;;;16.70;12.00;;;;;;;5.62;84.58;96284.63;5078447;28;20537;-64
2020/12/02 04:39:16;;;;;;;17.97;12.70;;;;;;;5.58;84.86;96277.41;5094335;28;20550;-64
2020/12/02 04:41:42;;;;;;;23.40;14.83;;;;;;;5.59;84.73;96277.19;5092608;28;20450;-64
2020/12/02 04:44:10;;;;;;;18.23;12.83;;;;;;;5.62;84.63;96278.59;5094533;28;20959;-63
2020/12/02 04:46:35;;;;;;;21.63;13.60;;;;;;;5.57;85.37;96274.00;5083298;28;20177;-63
2020/12/02 04:49:20;;;;;;;19.53;12.93;;;;;;;5.60;85.32;96273.59;5073856;28;20462;-64
2020/12/02 04:51:50;;;;;;;18.60;13.60;;;;;;;5.63;85.67;96269.78;5074082;28;20169;-64
2020/12/02 04:54:17;;;;;;;18.93;12.93;;;;;;;5.61;85.64;96275.22;5073888;28;20534;-63
2020/12/02 04:56:46;;;;;;;21.67;14.17;;;;;;;5.65;85.70;96265.97;5091680;28;20432;-65
2020/12/02 04:59:12;;;;;;;18.73;13.37;;;;;;;5.67;85.71;96265.81;5094008;28;20506;-64
2020/12/02 05:01:52;;;;;;;17.63;13.60;;;;;;;5.48;86.08;96269.97;5081383;28;20424;-64
2020/12/02 05:04:19;;;;;;;17.43;13.93;;;;;;;5.51;85.80;96268.78;5074142;28;20535;-64
2020/12/02 05:06:48;;;;;;;16.70;12.17;;;;;;;5.48;85.29;96269.97;5072023;28;20413;-63
2020/12/02 05:09:22;;;;;;;16.63;12.50;;;;;;;5.51;85.49;96266.94;5074482;28;20463;-63
2020/12/02 05:12:13;;;;;;;21.30;13.17;;;;;;;5.61;85.00;96269.19;5073669;28;20436;-63
2020/12/02 05:14:44;;;;;;;17.07;13.37;;;;;;;5.61;84.83;96279.59;5043600;28;20437;-64
2020/12/02 05:17:21;;;;;;;17.57;13.30;;;;;;;5.61;85.09;96270.00;5073032;28;20427;-63
2020/12/02 05:20:02;;;;;;;21.03;13.87;;;;;;;5.61;85.08;96277.81;5073227;28;20435;-64
2020/12/02 05:22:28;;;;;;;21.60;13.90;;;;;;;5.55;85.60;96283.81;5073625;28;20419;-63
2020/12/02 05:24:53;;;;;;;21.93;13.33;;;;;;;5.64;85.60;96281.81;5073669;28;20876;-64
2020/12/02 05:27:21;;;;;;;19.50;13.43;;;;;;;5.67;85.36;96281.44;5073058;28;20196;-64
2020/12/02 05:30:02;;;;;;;18.33;13.60;;;;;;;5.72;85.40;96281.66;5074341;28;20672;-63
2020/12/02 05:32:28;;;;;;;20.73;13.77;;;;;;;5.53;85.01;96285.78;5073488;28;20918;-64
2020/12/02 05:34:55;;;;;;;18.07;14.10;;;;;;;5.58;85.30;96293.81;5073145;28;20411;-64
2020/12/02 05:37:40;;;;;;;18.10;12.97;;;;;;;5.42;86.45;96290.78;5077930;28;20422;-63
2020/12/02 05:40:09;;;;;;;20.27;13.73;;;;;;;5.47;86.13;96291.78;5073642;28;20435;-63
2020/12/02 05:42:38;;;;;;;15.87;12.83;;;;;;;5.42;86.16;96293.38;5073325;28;20778;-63
2020/12/02 05:45:21;;;;;;;16.33;12.43;;;;;;;5.46;86.01;96286.78;5071979;28;20758;-63
2020/12/02 05:47:54;;;;;;;18.30;12.43;;;;;;;5.46;85.70;96289.38;5072990;28;20405;-64
2020/12/02 05:50:23;;;;;;;16.20;12.17;;;;;;;5.37;86.10;96288.75;5074306;28;20451;-64
2020/12/02 05:52:56;;;;;;;18.30;13.57;;;;;;;5.53;86.38;96279.78;5072871;28;20778;-65
2020/12/02 05:55:27;;;;;;;16.63;12.20;;;;;;;5.49;85.75;96281.97;5073437;28;20437;-65
2020/12/02 05:58:06;;;;;;;17.30;13.73;;;;;;;5.47;86.04;96276.16;5071500;28;20938;-65
2020/12/02 06:00:32;;;;;;;17.33;12.53;;;;;;;5.20;86.96;96282.25;5073037;28;20428;-64
2020/12/02 06:02:59;;;;;;;16.73;12.10;;;;;;;5.46;85.80;96282.38;5072961;28;20488;-63
2020/12/02 06:05:28;;;;;;;18.30;12.17;;;;;;;5.57;86.16;96281.00;5074063;28;20500;-63
2020/12/02 06:07:57;;;;;;;17.63;12.10;;;;;;;5.59;86.05;96279.81;5072345;28;20425;-64
2020/12/02 06:10:31;;;;;;;17.80;12.83;;;;;;;5.67;85.94;96282.22;5072918;28;20436;-64
2020/12/02 06:12:57;;;;;;;16.23;13.00;;;;;;;5.65;85.80;96280.81;5070017;28;20481;-64
2020/12/02 06:15:24;;;;;;;17.60;12.00;;;;;;;5.69;85.29;96287.25;5072987;28;20812;-64
2020/12/02 06:18:10;;;;;;;14.20;11.63;;;;;;;5.64;85.40;96285.22;5072535;28;20705;-65
2020/12/02 06:20:38;;;;;;;16.40;11.83;;;;;;;5.50;86.21;96280.19;5090759;28;20437;-64
2020/12/02 06:23:04;;;;;;;15.57;11.10;;;;;;;5.59;84.97;96282.41;5084133;28;20510;-64
2020/12/02 06:25:53;;;;;;;19.20;12.00;;;;;;;5.51;85.13;96281.78;5073055;28;20431;-64
2020/12/02 06:28:30;;;;;;;13.77;10.97;;;;;;;5.54;85.30;96278.78;5077736;28;20466;-64
2020/12/02 06:31:05;;;;;;;14.90;11.27;;;;;;;5.55;85.29;96285.59;5096840;28;20415;-64
2020/12/02 06:33:37;;;;;;;17.30;10.97;;;;;;;5.57;84.93;96283.59;5090890;28;20431;-64
2020/12/02 06:36:15;;;;;;;18.00;10.73;;;;;;;5.50;85.43;96282.78;5076239;28;20441;-64
2020/12/02 06:38:40;;;;;;;17.40;11.27;;;;;;;5.61;84.68;96283.03;5076049;28;20411;-64
2020/12/02 06:41:16;;;;;;;17.70;11.50;;;;;;;5.72;84.68;96286.84;5076741;28;20771;-63
2020/12/02 06:43:53;;;;;;;17.40;11.73;;;;;;;5.68;84.38;96280.44;5076429;28;20166;-64
2020/12/02 06:46:42;;;;;;;16.43;10.57;;;;;;;5.73;83.85;96284.03;5076328;28;20887;-64
2020/12/02 06:49:10;;;;;;;15.73;11.10;;;;;;;5.76;83.86;96272.44;5061773;28;20514;-64
2020/12/02 06:51:35;;;;;;;15.80;10.90;;;;;;;5.81;83.11;96272.63;5076323;28;20412;-64
2020/12/02 06:54:01;;;;;;;17.70;11.50;;;;;;;5.76;83.30;96277.66;5076335;28;20409;-64
2020/12/02 06:56:27;;;;;;;15.60;10.90;;;;;;;5.69;83.83;96275.00;5075589;28;20175;-65
2020/12/02 06:59:06;;;;;;;17.23;11.13;;;;;;;5.72;83.94;96273.81;5075719;28;20199;-64
2020/12/02 07:01:34;;;;;;;15.77;10.93;;;;;;;5.68;83.34;96280.44;5076177;28;20777;-64
2020/12/02 07:04:06;;;;;;;20.17;12.03;;;;;;;5.66;83.61;96277.22;5078834;28;20844;-64
2020/12/02 07:06:33;;;;;;;15.87;10.40;;;;;;;5.64;82.87;96274.81;5075836;28;20414;-63
2020/12/02 07:09:16;;;;;;;19.13;11.40;;;;;;;5.67;82.69;96274.41;5074643;28;20825;-63
2020/12/02 07:11:54;;;;;;;16.80;10.53;;;;;;;5.62;82.90;96276.81;5075602;28;20429;-64
2020/12/02 07:14:23;;;;;;;18.10;11.00;;;;;;;5.62;82.78;96281.19;5080454;28;20483;-63
2020/12/02 07:16:56;;;;;;;15.90;10.70;;;;;;;5.54;83.49;96278.78;5094491;28;20498;-63
2020/12/02 07:19:26;;;;;;;15.73;10.37;;;;;;;5.54;83.60;96277.00;5094710;28;20436;-63
2020/12/02 07:21:57;;;;;;;15.90;10.17;;;;;;;5.50;83.00;96280.97;5096667;28;20411;-64
2020/12/02 07:24:32;;;;;;;15.17;11.50;;;;;;;5.55;83.20;96280.38;5096298;28;20419;-63
2020/12/02 07:26:58;;;;;;;18.57;11.70;;;;;;;5.59;82.85;96279.00;5093113;28;20803;-65
2020/12/02 07:29:26;;;;;;;18.07;10.80;;;;;;;5.57;83.14;96278.38;5076484;28;20476;-64
2020/12/02 07:32:11;;;;;;;17.83;11.63;;;;;;;5.60;82.30;96286.63;5078214;28;20647;-64
2020/12/02 07:34:37;;;;;;;15.10;11.07;;;;;;;5.62;81.85;96276.81;5095864;28;20406;-64
2020/12/02 07:37:06;;;;;;;16.40;12.30;;;;;;;5.63;81.77;96290.63;5094881;28;20407;-63
2020/12/02 07:39:32;;;;;;;18.27;12.00;;;;;;;5.61;81.50;96293.44;5095147;28;20428;-63
2020/12/02 07:42:09;;;;;;;16.40;10.90;;;;;;;5.59;82.05;96286.81;5086082;28;20511;-63
2020/12/02 07:44:39;;;;;;;18.80;11.90;;;;;;;5.67;81.52;96291.88;5075398;28;20423;-64
2020/12/02 07:47:09;;;;;;;16.07;10.53;;;;;;;5.59;82.32;96281.59;5074619;28;20883;-64
2020/12/02 07:49:38;;;;;;;18.90;11.87;;;;;;;5.62;82.14;96286.41;5084643;28;20451;-63
2020/12/02 07:52:28;;;;;;;15.60;10.93;;;;;;;5.47;81.53;96283.97;5095528;28;20412;-64
2020/12/02 07:54:56;;;;;;;16.73;10.87;;;;;;;5.37;83.27;96283.53;5095430;28;20419;-64
2020/12/02 07:57:24;;;;;;;19.90;12.10;;;;;;;5.47;82.57;96286.56;5079479;28;20427;-63
2020/12/02 08:00:33;;;;;;;16.40;11.43;;;;;;;5.51;82.96;96282.56;5074673;28;20448;-64
2020/12/02 08:02:58;;;;;;;15.87;11.73;;;;;;;5.42;83.46;96288.97;5074941;28;20891;-63
2020/12/02 08:05:49;;;;;;;18.30;11.37;;;;;;;5.43;82.70;96289.78;5074952;28;20404;-63
2020/12/02 08:08:15;;;;;;;19.83;11.93;;;;;;;5.52;81.83;96286.81;5082917;28;20198;-63
2020/12/02 08:10:40;;;;;;;17.93;11.13;;;;;;;5.50;83.27;96290.59;5076573;28;20447;-63
2020/12/02 08:13:18;;;;;;;21.67;13.03;;;;;;;5.59;82.46;96286.81;5075315;28;20700;-64
2020/12/02 08:15:56;;;;;;;21.00;12.60;;;;;;;5.60;82.76;96285.84;5063239;28;20269;-64
2020/12/02 08:18:27;;;;;;;20.13;13.17;;;;;;;5.63;83.02;96291.44;5077367;28;20458;-63
2020/12/02 08:20:53;;;;;;;20.40;12.57;;;;;;;5.64;81.76;96293.03;5094770;28;20439;-63
2020/12/02 08:23:27;;;;;;;21.20;13.10;;;;;;;5.53;82.96;96293.59;5094876;28;20411;-63
2020/12/02 08:26:00;;;;;;;18.10;12.97;;;;;;;5.60;82.82;96288.44;5093185;28;20778;-63
2020/12/02 08:28:32;;;;;;;20.43;12.87;;;;;;;5.65;82.04;96289.44;5092782;28;20468;-62
2020/12/02 08:31:12;;;;;;;20.67;12.40;;;;;;;5.60;81.62;96286.63;5093294;28;20850;-63
2020/12/02 08:33:37;;;;;;;18.83;13.13;;;;;;;5.61;82.31;96282.22;5073634;28;20503;-63
2020/12/02 08:36:08;;;;;;;22.63;13.13;;;;;;;5.64;82.41;96293.03;5072797;28;20451;-65
2020/12/02 08:38:38;;;;;;;19.43;13.33;;;;;;;5.69;82.60;96288.03;5088811;28;20207;-65
2020/12/02 08:41:14;;;;;;;19.83;12.60;;;;;;;5.73;82.47;96284.03;5094652;28;20905;-64
2020/12/02 08:43:46;;;;;;;25.00;15.40;;;;;;;5.68;81.86;96288.25;5094605;28;20410;-63
2020/12/02 08:46:15;;;;;;;20.00;12.83;;;;;;;5.65;82.72;96281.59;5092708;28;20481;-65
2020/12/02 08:48:42;;;;;;;20.97;13.50;;;;;;;5.77;81.40;96290.47;5072746;28;20464;-64
2020/12/02 08:51:11;;;;;;;24.90;13.97;;;;;;;5.74;80.99;96284.84;5074366;28;20425;-63
2020/12/02 08:53:37;;;;;;;19.40;12.67;;;;;;;5.79;82.09;96280.66;5074206;28;20419;-63
2020/12/02 08:56:03;;;;;;;18.57;13.27;;;;;;;5.86;80.51;96288.50;5073890;28;20959;-64
2020/12/02 08:58:29;;;;;;;20.23;12.83;;;;;;;5.82;80.77;96282.88;5073574;28;20171;-64
2020/12/02 09:00:54;;;;;;;20.97;13.67;;;;;;;5.75;80.79;96289.88;5074254;28;20401;-64
2020/12/02 09:03:24;;;;;;;21.07;14.03;;;;;;;5.73;80.90;96270.22;5073460;28;20430;-64
2020/12/02 09:05:50;;;;;;;17.50;12.50;;;;;;;5.60;81.38;96270.97;5073840;28;20181;-65
2020/12/02 09:08:15;;;;;;;21.00;13.60;;;;;;;5.75;80.93;96266.41;5073285;28;20462;-64
2020/12/02 09:10:40;;;;;;;20.30;13.20;;;;;;;5.79;80.81;96269.41;5073146;28;20202;-60
2020/12/02 09:13:06;;;;;;;19.10;12.50;;;;;;;5.73;80.82;96262.38;5070142;28;20182;-60
2020/12/02 09:15:31;;;;;;;20.07;12.23;;;;;;;5.60;81.84;96262.38;5070093;28;20585;-60
2020/12/02 09:17:57;;;;;;;18.27;11.77;;;;;;;5.62;81.76;96262.97;5069473;28;20585;-61
2020/12/02 09:20:24;;;;;;;17.30;11.67;;;;;;;5.58;80.62;96269.59;5073646;28;20552;-64
2020/12/02 09:22:51;;;;;;;19.17;11.80;;;;;;;5.60;80.99;96267.59;5069653;28;20999;-65
2020/12/02 09:25:17;;;;;;;17.33;10.97;;;;;;;5.67;80.55;96261.38;5068983;28;20420;-61
2020/12/02 09:27:42;;;;;;;17.23;12.27;;;;;;;5.62;80.87;96266.38;5064468;28;20494;-63
2020/12/02 09:30:08;;;;;;;13.27;10.30;;;;;;;5.65;80.35;96265.19;5074796;28;20471;-69
2020/12/02 09:32:34;;;;;;;16.80;11.00;;;;;;;5.67;79.89;96261.38;5067244;28;20648;-66
2020/12/02 09:34:59;;;;;;;18.40;11.73;;;;;;;5.64;79.19;96264.38;5066620;28;20182;-70
2020/12/02 09:37:25;;;;;;;17.23;11.40;;;;;;;5.56;80.11;96264.56;5089742;28;20177;-66
2020/12/02 09:39:53;;;;;;;15.10;9.60;;;;;;;5.63;79.86;96265.41;5071788;28;20210;-61
2020/12/02 09:42:37;;;;;;;17.63;10.37;;;;;;;5.54;80.25;96256.16;5050913;28;20178;-71
2020/12/02 09:45:32;;;;;;;11.03;8.30;;;;;;;5.64;79.86;96253.97;5068646;28;20895;-69
2020/12/02 09:48:06;;;;;;;12.77;8.70;;;;;;;5.69;79.38;96250.78;5041568;28;20951;-65
2020/12/02 09:50:31;;;;;;;11.03;7.90;;;;;;;5.70;78.33;96250.56;5080835;28;20512;-71
2020/12/02 09:52:59;;;;;;;13.33;9.57;;;;;;;5.78;78.42;96252.19;5069514;28;20500;-59
2020/12/02 09:55:25;;;;;;;13.10;9.03;;;;;;;5.85;78.50;96245.22;5071770;28;20177;-62
2020/12/02 09:57:52;;;;;;;11.20;8.97;;;;;;;5.74;77.20;96245.75;5063005;28;20427;-65
2020/12/02 10:00:22;;;;;;;11.60;9.00;;;;;;;5.84;77.21;96238.38;5058952;28;20198;-61
2020/12/02 10:03:35;;;;;;;11.30;8.27;;;;;;;5.65;77.79;96239.91;5060931;28;20467;-62
2020/12/02 10:06:15;;;;;;;9.60;7.40;;;;;;;5.80;77.60;96232.72;5073269;28;20432;-66
2020/12/02 10:09:06;;;;;;;11.40;8.57;;;;;;;5.78;77.48;96229.50;5072710;28;20456;-62
2020/12/02 10:11:59;;;;;;;12.50;8.40;;;;;;;5.82;77.37;96219.50;5092377;28;20923;-63
2020/12/02 10:14:36;;;;;;;10.80;8.00;;;;;;;5.86;77.26;96225.94;5093871;28;20892;-68
2020/12/02 10:17:31;;;;;;;11.23;8.67;;;;;;;5.88;77.10;96214.34;5093393;28;20419;-64
2020/12/02 10:20:24;;;;;;;9.97;7.97;;;;;;;5.84;77.21;96209.69;5079768;28;20447;-65
2020/12/02 10:23:11;;;;;;;12.90;8.03;;;;;;;5.83;77.96;96201.09;5091333;28;21201;-64
2020/12/02 10:25:54;;;;;;;11.90;8.83;;;;;;;5.96;77.63;96197.69;5053304;28;20463;-64
2020/12/02 10:28:30;;;;;;;13.23;8.33;;;;;;;5.97;76.90;96192.28;5067079;28;20482;-64
2020/12/02 10:31:10;;;;;;;12.90;9.10;;;;;;;6.02;76.07;96204.69;5073232;28;20480;-64
2020/12/02 10:33:50;;;;;;;10.63;8.40;;;;;;;6.04;76.26;96185.25;5073054;28;20521;-65
2020/12/02 10:36:17;;;;;;;13.70;8.50;;;;;;;6.07;76.77;96184.84;5072348;28;20454;-63
2020/12/02 10:38:47;;;;;;;12.47;8.87;;;;;;;6.09;76.26;96177.63;5072591;28;20436;-62
2020/12/02 10:41:38;;;;;;;13.80;8.63;;;;;;;6.08;76.79;96176.03;5080730;28;20437;-62
2020/12/02 10:44:41;;;;;;;17.13;10.03;;;;;;;6.17;75.65;96166.19;5065364;28;20428;-62
2020/12/02 10:47:27;;;;;;;12.70;9.60;;;;;;;6.14;75.61;96158.75;5092179;28;20407;-62
2020/12/02 10:49:54;;;;;;;13.20;9.83;;;;;;;5.98;76.30;96157.38;5092923;28;20469;-62
2020/12/02 10:52:20;;;;;;;14.33;10.90;;;;;;;5.97;77.06;96152.34;5091122;28;20416;-62
2020/12/02 10:54:48;;;;;;;12.63;9.33;;;;;;;6.00;76.43;96152.75;5072411;28;20424;-61
2020/12/02 10:57:20;;;;;;;17.40;10.07;;;;;;;6.04;76.42;96146.13;5073150;28;20641;-62
2020/12/02 10:59:50;;;;;;;18.93;11.03;;;;;;;6.12;76.19;96142.53;5071977;28;20432;-62
2020/12/02 11:02:20;;;;;;;14.80;10.60;;;;;;;6.15;76.81;96134.28;5072589;28;20438;-62
2020/12/02 11:04:47;;;;;;;16.20;11.10;;;;;;;6.11;76.02;96143.50;5072590;28;20435;-61
2020/12/02 11:07:38;;;;;;;17.43;10.97;;;;;;;6.14;76.26;96130.84;5072276;28;20900;-62
2020/12/02 11:10:22;;;;;;;17.00;10.80;;;;;;;6.08;76.59;96131.69;5050766;28;20563;-62
2020/12/02 11:12:59;;;;;;;13.57;10.40;;;;;;;6.04;76.21;96130.50;5070822;28;20411;-62
2020/12/02 11:15:27;;;;;;;17.17;11.17;;;;;;;6.05;76.80;96126.88;5072526;28;20436;-62
2020/12/02 11:18:27;;;;;;;19.00;12.57;;;;;;;5.97;76.96;96129.69;5071838;28;20425;-62
2020/12/02 11:20:59;;;;;;;20.70;12.40;;;;;;;5.78;77.73;96121.88;5075318;28;20435;-61
2020/12/02 11:23:35;;;;;;;18.63;12.53;;;;;;;5.92;76.59;96118.28;5066681;28;20766;-68
2020/12/02 11:26:12;;;;;;;22.43;12.97;;;;;;;5.88;77.36;96117.88;5074110;28;20917;-68
2020/12/02 11:28:42;;;;;;;18.87;12.27;;;;;;;5.88;77.86;96117.88;5075139;28;20460;-68
2020/12/02 11:31:25;;;;;;;22.57;13.10;;;;;;;5.91;77.95;96112.25;5075293;28;20887;-68
2020/12/02 11:34:14;;;;;;;23.50;13.50;;;;;;;6.00;77.87;96108.44;5075396;28;20427;-67
2020/12/02 11:36:52;;;;;;;24.87;13.60;;;;;;;5.96;77.71;96107.22;5076303;28;20443;-68
2020/12/02 11:39:28;;;;;;;23.03;12.90;;;;;;;6.02;77.35;96108.22;5075402;28;20944;-60
2020/12/02 11:42:01;;;;;;;22.40;14.37;;;;;;;5.81;78.77;96098.00;5055372;28;20908;-60
2020/12/02 11:44:47;;;;;;;23.60;13.90;;;;;;;5.92;78.30;96102.63;5055672;28;20412;-60
2020/12/02 11:47:27;;;;;;;21.50;14.17;;;;;;;5.70;78.17;96098.59;5054997;28;20409;-60